createdAt,value
2022-08-05T00:01:48.860Z,3.13
2022-08-05T00:06:54.768Z,3.33
2022-08-05T00:12:00.022Z,4.23
2022-08-05T00:17:03.888Z,3.80
2022-08-05T00:22:24.132Z,3.80
2022-08-05T00:27:36.125Z,3.97
2022-08-05T00:32:40.650Z,4.10
2022-08-05T00:37:53.316Z,4.00
2022-08-05T00:43:07.681Z,3.70
2022-08-05T00:48:12.285Z,3.60
2022-08-05T00:54:01.062Z,3.20
2022-08-05T00:58:45.001Z,3.37
2022-08-05T01:03:50.024Z,3.60
2022-08-05T01:08:55.266Z,3.33
2022-08-05T01:14:08.724Z,3.93
2022-08-05T01:19:46.342Z,3.70
2022-08-05T01:25:04.484Z,3.63
2022-08-05T01:30:12.406Z,3.63
2022-08-05T01:35:51.540Z,3.60
2022-08-05T01:40:53.592Z,3.87
2022-08-05T01:46:07.501Z,3.53
2022-08-05T01:51:21.371Z,3.97
2022-08-05T01:58:12.768Z,3.70
2022-08-05T02:01:58.876Z,4.17
2022-08-05T02:07:03.375Z,4.00
2022-08-05T02:12:10.490Z,3.90
2022-08-05T02:18:28.283Z,4.00
2022-08-05T02:23:00.038Z,4.17
2022-08-05T02:28:08.959Z,3.80
2022-08-05T02:33:24.194Z,4.50
2022-08-05T02:38:35.447Z,3.50
2022-08-05T02:44:06.219Z,3.10
2022-08-05T02:49:07.393Z,3.60
2022-08-05T02:54:35.755Z,3.20
2022-08-05T02:59:50.347Z,3.30
2022-08-05T03:04:58.951Z,3.53
2022-08-05T03:10:02.701Z,3.60
2022-08-05T03:15:09.305Z,3.57
2022-08-05T03:20:14.683Z,3.50
2022-08-05T03:25:33.667Z,3.80
2022-08-05T03:30:45.224Z,3.33
2022-08-05T03:35:53.049Z,3.50
2022-08-05T03:40:59.482Z,3.40
2022-08-05T03:46:08.384Z,3.30
2022-08-05T03:52:49.029Z,3.00
2022-08-05T03:56:49.900Z,3.23
2022-08-05T04:01:58.984Z,3.47
2022-08-05T04:07:07.293Z,3.23
2022-08-05T04:12:24.585Z,3.00
2022-08-05T04:17:55.546Z,3.20
2022-08-05T04:22:54.788Z,2.90
2022-08-05T04:28:05.753Z,2.90
2022-08-05T04:33:18.159Z,2.90
2022-08-05T04:38:51.011Z,3.17
2022-08-05T04:43:55.818Z,3.60
2022-08-05T04:48:59.895Z,3.20
2022-08-05T04:54:05.218Z,3.07
2022-08-05T04:59:21.770Z,3.23
2022-08-05T05:04:27.929Z,3.50
2022-08-05T05:09:32.962Z,3.30
2022-08-05T05:14:49.430Z,3.40
2022-08-05T05:19:56.763Z,3.30
2022-08-05T05:25:01.994Z,3.17
2022-08-05T05:30:30.825Z,3.20
2022-08-05T05:35:37.969Z,3.40
2022-08-05T05:40:48.081Z,3.60
2022-08-05T05:45:54.840Z,3.53
2022-08-05T05:50:58.637Z,3.73
2022-08-05T05:56:26.069Z,3.30
2022-08-05T06:01:39.815Z,3.07
2022-08-05T06:06:47.500Z,3.40
2022-08-05T06:12:00.012Z,3.40
2022-08-05T06:17:22.706Z,3.53
2022-08-05T06:22:33.656Z,3.40
2022-08-05T06:28:11.763Z,3.93
2022-08-05T06:33:03.578Z,4.07
2022-08-05T06:38:08.309Z,3.50
2022-08-05T06:43:58.581Z,3.70
2022-08-05T06:48:56.009Z,3.90
2022-08-05T06:54:04.677Z,3.50
2022-08-05T06:59:15.055Z,2.90
2022-08-05T07:04:19.260Z,3.17
2022-08-05T07:09:24.981Z,3.40
2022-08-05T07:14:47.751Z,3.72
2022-08-05T07:25:23.118Z,3.60
2022-08-05T07:30:43.653Z,3.20
2022-08-05T07:36:02.939Z,3.20
2022-08-05T07:42:08.400Z,2.90
2022-08-05T07:46:40.358Z,3.40
2022-08-05T07:51:53.171Z,3.65
2022-08-05T07:57:01.306Z,3.60
2022-08-05T08:02:31.287Z,3.38
2022-08-05T08:07:59.044Z,3.65
2022-08-05T08:13:04.430Z,3.50
2022-08-05T08:18:14.206Z,3.33
2022-08-05T08:24:02.092Z,4.07
2022-08-05T08:28:59.604Z,3.80
2022-08-05T08:34:08.394Z,3.40
2022-08-05T08:39:15.526Z,3.65
2022-08-05T08:45:22.490Z,3.80
2022-08-05T08:50:14.721Z,3.53
2022-08-05T08:55:13.152Z,3.58
2022-08-05T09:00:17.679Z,3.42
2022-08-05T09:05:38.695Z,3.63
2022-08-05T09:10:51.543Z,3.63
2022-08-05T09:15:56.182Z,3.60
2022-08-05T09:21:01.508Z,3.90
2022-08-05T09:26:09.829Z,4.00
2022-08-05T09:31:43.467Z,3.72
2022-08-05T09:36:56.173Z,3.90
2022-08-05T09:42:04.933Z,3.80
2022-08-05T09:47:15.786Z,3.78
2022-08-05T09:52:23.353Z,3.38
2022-08-05T09:57:40.198Z,3.00
2022-08-05T10:02:48.652Z,2.90
2022-08-05T10:08:36.515Z,2.65
2022-08-05T10:13:31.584Z,2.53
2022-08-05T10:18:52.084Z,2.50
2022-08-05T10:24:00.541Z,3.08
2022-08-05T10:29:04.754Z,2.25
2022-08-05T10:34:09.261Z,2.50
2022-08-05T10:39:24.898Z,2.78
2022-08-05T10:44:46.750Z,2.50
2022-08-05T10:50:08.484Z,2.58
2022-08-05T10:55:28.155Z,2.58
2022-08-05T11:00:33.075Z,2.85
2022-08-05T11:05:37.431Z,2.90
2022-08-05T11:10:59.992Z,2.58
2022-08-05T11:16:34.013Z,2.78
2022-08-05T11:21:49.791Z,2.83
2022-08-05T11:27:45.789Z,3.00
2022-08-05T11:33:43.886Z,2.45
2022-08-05T11:38:55.258Z,2.78
2022-08-05T11:44:08.282Z,2.90
2022-08-05T11:49:14.966Z,2.90
2022-08-05T11:54:33.193Z,3.03
2022-08-05T11:59:50.076Z,3.28
2022-08-05T12:04:59.283Z,2.78
2022-08-05T12:10:09.477Z,3.10
2022-08-05T12:15:38.527Z,3.13
2022-08-05T12:20:43.980Z,2.58
2022-08-05T12:25:57.332Z,2.85
2022-08-05T12:31:02.990Z,2.80
2022-08-05T12:36:08.427Z,3.00
2022-08-05T12:41:14.573Z,2.80
2022-08-05T12:46:29.487Z,3.22
2022-08-05T12:52:12.627Z,3.05
2022-08-05T12:57:12.940Z,3.17
2022-08-05T13:02:30.199Z,3.28
2022-08-05T13:12:58.904Z,3.63
2022-08-05T13:18:04.228Z,3.20
2022-08-05T13:23:07.919Z,3.10
2022-08-05T13:28:12.865Z,3.40
2022-08-05T13:34:23.398Z,2.90
2022-08-05T13:38:43.453Z,2.80
2022-08-05T13:43:54.996Z,3.30
2022-08-05T13:49:01.030Z,3.30
2022-08-05T13:54:11.554Z,3.35
2022-08-05T13:59:20.027Z,3.10
2022-08-05T14:04:43.114Z,3.20
2022-08-05T14:09:54.060Z,2.92
2022-08-05T14:14:58.310Z,3.60
2022-08-05T14:20:07.483Z,2.88
2022-08-05T14:25:19.183Z,3.20
2022-08-05T14:30:27.849Z,3.33
2022-08-05T14:35:36.893Z,3.20
2022-08-05T14:40:41.234Z,3.30
2022-08-05T14:45:47.797Z,3.30
2022-08-05T14:50:53.088Z,3.70
2022-08-05T14:55:56.812Z,3.80
2022-08-05T15:01:01.513Z,4.07
2022-08-05T15:06:14.891Z,4.23
2022-08-05T15:11:19.689Z,4.17
2022-08-05T15:16:23.501Z,4.50
2022-08-05T15:21:30.524Z,4.47
2022-08-05T15:26:34.279Z,4.17
2022-08-05T15:31:37.873Z,5.07
2022-08-05T15:36:43.178Z,5.47
2022-08-05T15:41:58.032Z,5.03
2022-08-05T15:47:03.970Z,5.33
2022-08-05T15:52:16.092Z,5.20
2022-08-05T15:57:34.744Z,4.60
2022-08-05T16:02:38.816Z,5.60
2022-08-05T16:07:46.675Z,4.90
2022-08-05T16:12:53.194Z,5.30
2022-08-05T16:17:59.976Z,5.40
2022-08-05T16:23:05.323Z,5.10
2022-08-05T16:28:14.150Z,5.00
2022-08-05T16:33:19.547Z,4.70
2022-08-05T16:38:28.315Z,5.10
2022-08-05T16:43:33.694Z,4.80
2022-08-05T16:48:40.379Z,4.57
2022-08-05T16:54:04.365Z,4.27
2022-08-05T16:59:11.049Z,5.00
2022-08-05T17:04:18.915Z,5.00
2022-08-05T17:09:24.489Z,5.00
2022-08-05T17:14:37.515Z,4.57
2022-08-05T17:19:46.601Z,4.80
2022-08-05T17:25:00.981Z,5.10
2022-08-05T17:30:18.647Z,5.30
2022-08-05T17:35:23.264Z,5.13
2022-08-05T17:40:29.169Z,5.73
2022-08-05T17:45:38.714Z,5.70
2022-08-05T17:50:42.719Z,4.70
2022-08-05T17:55:48.224Z,5.40
2022-08-05T18:00:52.722Z,5.67
2022-08-05T18:06:04.805Z,4.90
2022-08-05T18:11:11.176Z,5.43
2022-08-05T18:16:27.297Z,6.43
2022-08-05T18:22:07.863Z,6.40
2022-08-05T18:26:58.169Z,6.57
2022-08-05T18:32:01.991Z,6.50
2022-08-05T18:37:12.540Z,5.67
2022-08-05T18:42:32.173Z,5.70
2022-08-05T18:47:38.702Z,5.13
2022-08-05T18:52:51.038Z,6.63
2022-08-05T18:58:03.344Z,7.63
2022-08-05T19:03:07.761Z,8.77
2022-08-05T19:08:12.188Z,9.23
2022-08-05T19:13:21.129Z,9.30
2022-08-05T19:18:26.659Z,8.33
2022-08-05T19:24:05.484Z,7.67
2022-08-05T19:28:57.697Z,6.03
2022-08-05T19:34:01.722Z,4.17
2022-08-05T19:39:06.811Z,4.53
2022-08-05T19:44:13.818Z,4.70
2022-08-05T19:49:18.284Z,4.80
2022-08-05T19:54:29.409Z,3.90
2022-08-05T19:59:54.755Z,3.20
2022-08-05T20:05:01.310Z,3.40
2022-08-05T20:10:13.417Z,3.77
2022-08-05T20:15:51.724Z,3.70
2022-08-05T20:20:47.548Z,3.87
2022-08-05T20:25:52.487Z,3.67
2022-08-05T20:30:59.236Z,3.80
2022-08-05T20:36:03.459Z,4.47
2022-08-05T20:41:08.208Z,3.87
2022-08-05T20:46:18.559Z,4.47
2022-08-05T20:51:28.814Z,3.90
2022-08-05T20:56:40.164Z,3.70
2022-08-05T21:01:47.663Z,3.60
2022-08-05T21:06:54.475Z,3.43
2022-08-05T21:12:08.821Z,4.07
2022-08-05T21:17:16.375Z,3.73
2022-08-05T21:22:21.858Z,3.23
2022-08-05T21:27:27.550Z,3.80
2022-08-05T21:32:43.694Z,3.53
2022-08-05T21:37:53.271Z,4.40
2022-08-05T21:42:59.181Z,3.93
2022-08-05T21:48:06.497Z,4.70
2022-08-05T21:53:16.713Z,5.20
2022-08-05T21:58:24.920Z,4.43
2022-08-05T22:03:52.835Z,5.27
2022-08-05T22:08:56.969Z,4.40
2022-08-05T22:14:06.392Z,4.93
2022-08-05T22:20:00.302Z,4.80
2022-08-05T22:25:08.703Z,5.13
2022-08-05T22:31:00.164Z,4.87
2022-08-05T22:36:10.915Z,5.07
2022-08-05T22:41:26.504Z,5.17
2022-08-05T22:46:43.448Z,5.37
2022-08-05T22:52:04.700Z,5.63
2022-08-05T22:57:10.392Z,4.73
2022-08-05T23:02:16.822Z,4.37
2022-08-05T23:07:22.484Z,4.30
2022-08-05T23:12:28.451Z,3.67
2022-08-05T23:17:37.275Z,4.17
2022-08-05T23:22:43.376Z,3.93
2022-08-05T23:28:00.466Z,3.73
2022-08-05T23:33:04.845Z,4.00
2022-08-05T23:38:12.000Z,3.90
2022-08-05T23:43:25.286Z,3.53
2022-08-05T23:48:39.359Z,3.87
2022-08-05T23:53:47.362Z,3.80
2022-08-05T23:58:51.008Z,3.90
